sensor_id;sensor_type;location;lat;lon;timestamp;P1;durP1;ratioP1;P2;durP2;ratioP2
21814;SDS011;11069;48.988;8.450;2022-11-15T00:00:51;34.80;;;31.15;;
21814;SDS011;11069;48.988;8.450;2022-11-15T00:03:21;38.75;;;35.00;;
21814;SDS011;11069;48.988;8.450;2022-11-15T00:05:51;39.83;;;35.53;;
21814;SDS011;11069;48.988;8.450;2022-11-15T00:08:17;35.92;;;32.35;;
21814;SDS011;11069;48.988;8.450;2022-11-15T00:10:43;32.25;;;29.05;;
21814;SDS011;11069;48.988;8.450;2022-11-15T00:13:18;33.33;;;30.02;;
21814;SDS011;11069;48.988;8.450;2022-11-15T00:15:44;36.97;;;33.20;;
21814;SDS011;11069;48.988;8.450;2022-11-15T00:18:13;35.72;;;32.13;;
21814;SDS011;11069;48.988;8.450;2022-11-15T00:20:39;35.42;;;31.83;;
21814;SDS011;11069;48.988;8.450;2022-11-15T00:23:05;33.35;;;30.08;;
21814;SDS011;11069;48.988;8.450;2022-11-15T00:25:31;32.00;;;27.55;;
21814;SDS011;11069;48.988;8.450;2022-11-15T00:27:57;30.13;;;27.02;;
21814;SDS011;11069;48.988;8.450;2022-11-15T00:30:24;30.02;;;26.85;;
21814;SDS011;11069;48.988;8.450;2022-11-15T00:32:51;28.80;;;25.80;;
21814;SDS011;11069;48.988;8.450;2022-11-15T00:35:16;29.45;;;26.55;;
21814;SDS011;11069;48.988;8.450;2022-11-15T00:37:42;30.50;;;27.25;;
21814;SDS011;11069;48.988;8.450;2022-11-15T00:40:08;31.00;;;27.35;;
21814;SDS011;11069;48.988;8.450;2022-11-15T00:42:35;27.67;;;24.80;;
21814;SDS011;11069;48.988;8.450;2022-11-15T00:45:00;29.58;;;26.67;;
21814;SDS011;11069;48.988;8.450;2022-11-15T00:47:26;26.10;;;23.35;;
21814;SDS011;11069;48.988;8.450;2022-11-15T00:49:52;29.25;;;26.08;;
21814;SDS011;11069;48.988;8.450;2022-11-15T00:52:17;27.02;;;24.38;;
21814;SDS011;11069;48.988;8.450;2022-11-15T00:54:43;25.17;;;22.67;;
21814;SDS011;11069;48.988;8.450;2022-11-15T00:57:08;26.75;;;23.92;;
21814;SDS011;11069;48.988;8.450;2022-11-15T00:59:34;26.63;;;23.85;;
21814;SDS011;11069;48.988;8.450;2022-11-15T01:01:59;27.00;;;24.10;;
21814;SDS011;11069;48.988;8.450;2022-11-15T01:04:26;26.75;;;24.05;;
21814;SDS011;11069;48.988;8.450;2022-11-15T01:06:51;24.88;;;22.27;;
21814;SDS011;11069;48.988;8.450;2022-11-15T01:09:17;27.88;;;24.92;;
21814;SDS011;11069;48.988;8.450;2022-11-15T01:11:42;25.67;;;23.20;;
21814;SDS011;11069;48.988;8.450;2022-11-15T01:14:08;27.98;;;25.10;;
21814;SDS011;11069;48.988;8.450;2022-11-15T01:16:34;24.65;;;22.25;;
21814;SDS011;11069;48.988;8.450;2022-11-15T01:18:59;26.70;;;24.00;;
21814;SDS011;11069;48.988;8.450;2022-11-15T01:21:25;27.23;;;24.52;;
21814;SDS011;11069;48.988;8.450;2022-11-15T01:23:54;25.55;;;22.95;;
21814;SDS011;11069;48.988;8.450;2022-11-15T01:26:20;25.27;;;22.77;;
21814;SDS011;11069;48.988;8.450;2022-11-15T01:28:46;23.50;;;21.17;;
21814;SDS011;11069;48.988;8.450;2022-11-15T01:31:13;22.48;;;20.38;;
21814;SDS011;11069;48.988;8.450;2022-11-15T01:33:41;23.17;;;20.77;;
21814;SDS011;11069;48.988;8.450;2022-11-15T01:36:08;22.30;;;20.00;;
21814;SDS011;11069;48.988;8.450;2022-11-15T01:38:42;23.17;;;20.95;;
21814;SDS011;11069;48.988;8.450;2022-11-15T01:41:18;22.08;;;19.88;;
21814;SDS011;11069;48.988;8.450;2022-11-15T01:43:47;21.25;;;19.00;;
21814;SDS011;11069;48.988;8.450;2022-11-15T01:46:41;22.85;;;20.48;;
21814;SDS011;11069;48.988;8.450;2022-11-15T01:49:16;21.70;;;19.50;;
21814;SDS011;11069;48.988;8.450;2022-11-15T01:51:44;20.90;;;18.67;;
21814;SDS011;11069;48.988;8.450;2022-11-15T01:54:11;21.98;;;19.80;;
21814;SDS011;11069;48.988;8.450;2022-11-15T01:56:42;16.67;;;14.93;;
21814;SDS011;11069;48.988;8.450;2022-11-15T01:59:12;20.70;;;18.15;;
21814;SDS011;11069;48.988;8.450;2022-11-15T02:01:38;22.50;;;19.95;;
21814;SDS011;11069;48.988;8.450;2022-11-15T02:04:05;21.17;;;19.08;;
21814;SDS011;11069;48.988;8.450;2022-11-15T02:06:38;19.58;;;17.15;;
21814;SDS011;11069;48.988;8.450;2022-11-15T02:09:04;19.10;;;17.10;;
21814;SDS011;11069;48.988;8.450;2022-11-15T02:11:30;20.40;;;18.33;;
21814;SDS011;11069;48.988;8.450;2022-11-15T02:13:56;18.98;;;17.02;;
21814;SDS011;11069;48.988;8.450;2022-11-15T02:21:53;17.63;;;16.00;;
21814;SDS011;11069;48.988;8.450;2022-11-15T02:37:23;17.63;;;15.30;;
21814;SDS011;11069;48.988;8.450;2022-11-15T02:40:11;16.27;;;14.68;;
21814;SDS011;11069;48.988;8.450;2022-11-15T02:42:45;16.85;;;13.43;;
21814;SDS011;11069;48.988;8.450;2022-11-15T02:45:37;14.15;;;11.80;;
21814;SDS011;11069;48.988;8.450;2022-11-15T02:48:06;13.93;;;11.32;;
21814;SDS011;11069;48.988;8.450;2022-11-15T02:50:34;13.93;;;10.63;;
21814;SDS011;11069;48.988;8.450;2022-11-15T02:53:00;12.60;;;10.00;;
21814;SDS011;11069;48.988;8.450;2022-11-15T02:55:36;15.13;;;11.10;;
21814;SDS011;11069;48.988;8.450;2022-11-15T03:03:38;12.15;;;9.77;;
21814;SDS011;11069;48.988;8.450;2022-11-15T03:06:14;12.07;;;8.80;;
21814;SDS011;11069;48.988;8.450;2022-11-15T03:11:15;11.32;;;7.53;;
21814;SDS011;11069;48.988;8.450;2022-11-15T03:13:59;10.45;;;8.05;;
21814;SDS011;11069;48.988;8.450;2022-11-15T03:22:01;9.55;;;7.88;;
21814;SDS011;11069;48.988;8.450;2022-11-15T03:24:30;8.23;;;7.43;;
21814;SDS011;11069;48.988;8.450;2022-11-15T03:26:59;9.02;;;7.75;;
21814;SDS011;11069;48.988;8.450;2022-11-15T03:29:30;7.82;;;7.03;;
21814;SDS011;11069;48.988;8.450;2022-11-15T03:32:00;9.65;;;6.53;;
21814;SDS011;11069;48.988;8.450;2022-11-15T03:37:25;9.60;;;7.35;;
21814;SDS011;11069;48.988;8.450;2022-11-15T03:40:00;8.35;;;6.60;;
21814;SDS011;11069;48.988;8.450;2022-11-15T03:42:28;8.77;;;7.05;;
21814;SDS011;11069;48.988;8.450;2022-11-15T03:45:10;7.88;;;6.80;;
21814;SDS011;11069;48.988;8.450;2022-11-15T03:47:43;7.72;;;6.90;;
21814;SDS011;11069;48.988;8.450;2022-11-15T03:50:32;11.77;;;7.10;;
21814;SDS011;11069;48.988;8.450;2022-11-15T03:52:59;9.07;;;7.47;;
21814;SDS011;11069;48.988;8.450;2022-11-15T03:55:25;8.13;;;7.32;;
21814;SDS011;11069;48.988;8.450;2022-11-15T03:57:52;10.15;;;6.90;;
21814;SDS011;11069;48.988;8.450;2022-11-15T04:00:21;8.40;;;7.43;;
21814;SDS011;11069;48.988;8.450;2022-11-15T04:02:46;7.88;;;6.53;;
21814;SDS011;11069;48.988;8.450;2022-11-15T04:05:13;6.68;;;6.07;;
21814;SDS011;11069;48.988;8.450;2022-11-15T04:07:38;7.97;;;6.40;;
21814;SDS011;11069;48.988;8.450;2022-11-15T04:10:04;10.18;;;6.22;;
21814;SDS011;11069;48.988;8.450;2022-11-15T04:12:37;8.73;;;5.45;;
21814;SDS011;11069;48.988;8.450;2022-11-15T04:15:08;8.57;;;5.78;;
21814;SDS011;11069;48.988;8.450;2022-11-15T04:20:30;8.18;;;6.00;;
21814;SDS011;11069;48.988;8.450;2022-11-15T04:23:16;6.82;;;5.95;;
21814;SDS011;11069;48.988;8.450;2022-11-15T04:26:14;7.18;;;6.28;;
21814;SDS011;11069;48.988;8.450;2022-11-15T04:28:43;10.13;;;9.13;;
21814;SDS011;11069;48.988;8.450;2022-11-15T04:31:27;13.55;;;9.63;;
21814;SDS011;11069;48.988;8.450;2022-11-15T04:33:53;11.85;;;10.30;;
21814;SDS011;11069;48.988;8.450;2022-11-15T04:36:19;16.35;;;11.13;;
21814;SDS011;11069;48.988;8.450;2022-11-15T04:39:04;12.45;;;11.18;;
21814;SDS011;11069;48.988;8.450;2022-11-15T04:41:30;12.70;;;11.43;;
21814;SDS011;11069;48.988;8.450;2022-11-15T04:43:55;13.27;;;11.35;;
21814;SDS011;11069;48.988;8.450;2022-11-15T04:46:21;13.35;;;11.95;;
21814;SDS011;11069;48.988;8.450;2022-11-15T04:48:48;14.07;;;12.35;;
21814;SDS011;11069;48.988;8.450;2022-11-15T04:51:14;13.93;;;11.88;;
21814;SDS011;11069;48.988;8.450;2022-11-15T04:53:40;13.15;;;11.68;;
21814;SDS011;11069;48.988;8.450;2022-11-15T04:56:05;15.52;;;11.65;;
21814;SDS011;11069;48.988;8.450;2022-11-15T04:58:31;12.00;;;10.80;;
21814;SDS011;11069;48.988;8.450;2022-11-15T05:00:57;13.20;;;11.77;;
21814;SDS011;11069;48.988;8.450;2022-11-15T05:03:22;17.02;;;12.35;;
21814;SDS011;11069;48.988;8.450;2022-11-15T05:06:06;12.15;;;10.90;;
21814;SDS011;11069;48.988;8.450;2022-11-15T05:08:32;13.85;;;12.00;;
21814;SDS011;11069;48.988;8.450;2022-11-15T05:10:58;14.68;;;10.70;;
21814;SDS011;11069;48.988;8.450;2022-11-15T05:13:23;12.18;;;10.98;;
21814;SDS011;11069;48.988;8.450;2022-11-15T05:15:49;12.60;;;10.85;;
21814;SDS011;11069;48.988;8.450;2022-11-15T05:18:15;13.25;;;11.05;;
21814;SDS011;11069;48.988;8.450;2022-11-15T05:20:40;13.43;;;12.00;;
21814;SDS011;11069;48.988;8.450;2022-11-15T05:23:06;12.13;;;10.85;;
21814;SDS011;11069;48.988;8.450;2022-11-15T05:25:31;13.77;;;11.25;;
21814;SDS011;11069;48.988;8.450;2022-11-15T05:27:57;12.05;;;10.77;;
21814;SDS011;11069;48.988;8.450;2022-11-15T05:30:23;14.35;;;11.40;;
21814;SDS011;11069;48.988;8.450;2022-11-15T05:32:48;12.52;;;11.18;;
21814;SDS011;11069;48.988;8.450;2022-11-15T05:36:16;12.20;;;11.00;;
21814;SDS011;11069;48.988;8.450;2022-11-15T05:38:15;13.88;;;10.75;;
21814;SDS011;11069;48.988;8.450;2022-11-15T05:40:41;12.57;;;11.27;;
21814;SDS011;11069;48.988;8.450;2022-11-15T05:43:07;12.32;;;10.70;;
21814;SDS011;11069;48.988;8.450;2022-11-15T05:45:33;13.40;;;11.90;;
21814;SDS011;11069;48.988;8.450;2022-11-15T05:48:00;15.52;;;11.23;;
21814;SDS011;11069;48.988;8.450;2022-11-15T05:50:28;13.43;;;12.13;;
21814;SDS011;11069;48.988;8.450;2022-11-15T05:52:54;13.30;;;11.90;;
21814;SDS011;11069;48.988;8.450;2022-11-15T05:55:20;12.40;;;11.15;;
21814;SDS011;11069;48.988;8.450;2022-11-15T05:57:46;14.23;;;12.80;;
21814;SDS011;11069;48.988;8.450;2022-11-15T06:00:12;13.73;;;11.80;;
21814;SDS011;11069;48.988;8.450;2022-11-15T06:02:38;14.50;;;13.00;;
21814;SDS011;11069;48.988;8.450;2022-11-15T06:05:03;14.48;;;11.93;;
21814;SDS011;11069;48.988;8.450;2022-11-15T06:07:29;12.98;;;11.60;;
21814;SDS011;11069;48.988;8.450;2022-11-15T06:09:55;12.65;;;11.35;;
21814;SDS011;11069;48.988;8.450;2022-11-15T06:12:20;14.50;;;11.38;;
21814;SDS011;11069;48.988;8.450;2022-11-15T06:14:46;15.25;;;12.48;;
21814;SDS011;11069;48.988;8.450;2022-11-15T06:17:12;14.25;;;12.85;;
21814;SDS011;11069;48.988;8.450;2022-11-15T06:19:37;14.23;;;12.75;;
21814;SDS011;11069;48.988;8.450;2022-11-15T06:22:03;14.57;;;12.32;;
21814;SDS011;11069;48.988;8.450;2022-11-15T06:24:28;13.45;;;12.05;;
21814;SDS011;11069;48.988;8.450;2022-11-15T06:26:54;15.30;;;13.70;;
21814;SDS011;11069;48.988;8.450;2022-11-15T06:29:19;15.60;;;12.98;;
21814;SDS011;11069;48.988;8.450;2022-11-15T06:31:45;17.98;;;13.43;;
21814;SDS011;11069;48.988;8.450;2022-11-15T06:34:10;16.27;;;12.63;;
21814;SDS011;11069;48.988;8.450;2022-11-15T06:36:36;14.25;;;12.77;;
21814;SDS011;11069;48.988;8.450;2022-11-15T06:39:03;16.13;;;14.02;;
21814;SDS011;11069;48.988;8.450;2022-11-15T06:41:29;15.82;;;14.00;;
21814;SDS011;11069;48.988;8.450;2022-11-15T06:43:54;17.67;;;15.77;;
21814;SDS011;11069;48.988;8.450;2022-11-15T06:46:21;19.70;;;17.73;;
21814;SDS011;11069;48.988;8.450;2022-11-15T06:48:46;19.00;;;16.92;;
21814;SDS011;11069;48.988;8.450;2022-11-15T06:51:14;17.77;;;15.88;;
21814;SDS011;11069;48.988;8.450;2022-11-15T06:53:39;20.45;;;15.40;;
21814;SDS011;11069;48.988;8.450;2022-11-15T06:56:05;18.75;;;15.30;;
21814;SDS011;11069;48.988;8.450;2022-11-15T06:58:32;17.25;;;15.48;;
21814;SDS011;11069;48.988;8.450;2022-11-15T07:00:59;16.90;;;15.10;;
21814;SDS011;11069;48.988;8.450;2022-11-15T07:03:26;16.35;;;14.63;;
21814;SDS011;11069;48.988;8.450;2022-11-15T07:05:52;19.25;;;16.35;;
21814;SDS011;11069;48.988;8.450;2022-11-15T07:08:19;18.23;;;15.32;;
21814;SDS011;11069;48.988;8.450;2022-11-15T07:10:45;17.23;;;15.43;;
21814;SDS011;11069;48.988;8.450;2022-11-15T07:13:11;15.18;;;13.43;;
21814;SDS011;11069;48.988;8.450;2022-11-15T07:15:36;16.50;;;14.80;;
21814;SDS011;11069;48.988;8.450;2022-11-15T07:18:02;18.85;;;14.50;;
21814;SDS011;11069;48.988;8.450;2022-11-15T07:20:28;15.57;;;13.85;;
21814;SDS011;11069;48.988;8.450;2022-11-15T07:23:00;14.20;;;12.70;;
21814;SDS011;11069;48.988;8.450;2022-11-15T07:25:30;11.50;;;10.40;;
21814;SDS011;11069;48.988;8.450;2022-11-15T07:27:59;14.65;;;11.25;;
21814;SDS011;11069;48.988;8.450;2022-11-15T07:30:26;13.52;;;12.15;;
21814;SDS011;11069;48.988;8.450;2022-11-15T07:33:01;18.33;;;11.35;;
21814;SDS011;11069;48.988;8.450;2022-11-15T07:35:27;11.88;;;10.63;;
21814;SDS011;11069;48.988;8.450;2022-11-15T07:38:00;16.17;;;10.23;;
21814;SDS011;11069;48.988;8.450;2022-11-15T07:40:27;12.90;;;11.60;;
21814;SDS011;11069;48.988;8.450;2022-11-15T07:43:04;13.65;;;11.32;;
21814;SDS011;11069;48.988;8.450;2022-11-15T07:45:31;13.43;;;10.50;;
21814;SDS011;11069;48.988;8.450;2022-11-15T07:47:59;11.45;;;10.32;;
21814;SDS011;11069;48.988;8.450;2022-11-15T07:50:25;12.65;;;10.57;;
21814;SDS011;11069;48.988;8.450;2022-11-15T07:52:55;12.23;;;10.13;;
21814;SDS011;11069;48.988;8.450;2022-11-15T07:55:22;11.50;;;10.13;;
21814;SDS011;11069;48.988;8.450;2022-11-15T07:57:48;11.38;;;10.27;;
21814;SDS011;11069;48.988;8.450;2022-11-15T08:00:14;12.40;;;10.50;;
21814;SDS011;11069;48.988;8.450;2022-11-15T08:02:40;11.45;;;10.00;;
21814;SDS011;11069;48.988;8.450;2022-11-15T08:05:07;11.25;;;9.63;;
21814;SDS011;11069;48.988;8.450;2022-11-15T08:07:33;13.88;;;9.85;;
21814;SDS011;11069;48.988;8.450;2022-11-15T08:09:58;12.25;;;9.70;;
21814;SDS011;11069;48.988;8.450;2022-11-15T08:12:26;10.40;;;9.40;;
21814;SDS011;11069;48.988;8.450;2022-11-15T08:14:55;12.10;;;10.00;;
21814;SDS011;11069;48.988;8.450;2022-11-15T08:17:24;11.25;;;10.15;;
21814;SDS011;11069;48.988;8.450;2022-11-15T08:19:50;11.20;;;9.52;;
21814;SDS011;11069;48.988;8.450;2022-11-15T08:22:16;12.73;;;8.50;;
21814;SDS011;11069;48.988;8.450;2022-11-15T08:24:41;15.73;;;9.63;;
21814;SDS011;11069;48.988;8.450;2022-11-15T08:27:07;9.85;;;8.85;;
21814;SDS011;11069;48.988;8.450;2022-11-15T08:29:39;10.77;;;8.48;;
21814;SDS011;11069;48.988;8.450;2022-11-15T08:32:06;10.23;;;8.70;;
21814;SDS011;11069;48.988;8.450;2022-11-15T08:34:32;9.65;;;8.27;;
21814;SDS011;11069;48.988;8.450;2022-11-15T08:36:58;10.95;;;7.82;;
21814;SDS011;11069;48.988;8.450;2022-11-15T08:39:23;8.48;;;7.65;;
21814;SDS011;11069;48.988;8.450;2022-11-15T08:41:49;7.85;;;6.57;;
21814;SDS011;11069;48.988;8.450;2022-11-15T08:44:14;7.97;;;6.80;;
21814;SDS011;11069;48.988;8.450;2022-11-15T08:46:40;12.93;;;7.32;;
21814;SDS011;11069;48.988;8.450;2022-11-15T08:49:05;8.63;;;7.43;;
21814;SDS011;11069;48.988;8.450;2022-11-15T08:51:31;8.52;;;6.95;;
21814;SDS011;11069;48.988;8.450;2022-11-15T08:53:57;7.32;;;6.63;;
21814;SDS011;11069;48.988;8.450;2022-11-15T08:56:22;8.77;;;6.88;;
21814;SDS011;11069;48.988;8.450;2022-11-15T08:58:48;9.50;;;6.82;;
21814;SDS011;11069;48.988;8.450;2022-11-15T09:01:17;10.57;;;8.80;;
21814;SDS011;11069;48.988;8.450;2022-11-15T09:03:44;16.00;;;10.73;;
21814;SDS011;11069;48.988;8.450;2022-11-15T09:06:10;11.50;;;8.25;;
21814;SDS011;11069;48.988;8.450;2022-11-15T09:08:36;10.68;;;7.70;;
21814;SDS011;11069;48.988;8.450;2022-11-15T09:11:08;8.13;;;6.75;;
21814;SDS011;11069;48.988;8.450;2022-11-15T09:13:35;9.57;;;7.00;;
21814;SDS011;11069;48.988;8.450;2022-11-15T09:16:04;9.75;;;7.03;;
21814;SDS011;11069;48.988;8.450;2022-11-15T09:18:30;9.90;;;6.88;;
21814;SDS011;11069;48.988;8.450;2022-11-15T09:20:57;10.40;;;6.93;;
21814;SDS011;11069;48.988;8.450;2022-11-15T09:23:24;11.73;;;6.90;;
21814;SDS011;11069;48.988;8.450;2022-11-15T09:25:51;9.77;;;6.43;;
21814;SDS011;11069;48.988;8.450;2022-11-15T09:28:16;8.55;;;6.50;;
21814;SDS011;11069;48.988;8.450;2022-11-15T09:30:43;9.50;;;5.72;;
21814;SDS011;11069;48.988;8.450;2022-11-15T09:33:09;13.10;;;6.00;;
21814;SDS011;11069;48.988;8.450;2022-11-15T09:35:36;8.05;;;5.32;;
21814;SDS011;11069;48.988;8.450;2022-11-15T09:38:02;5.55;;;5.05;;
21814;SDS011;11069;48.988;8.450;2022-11-15T09:40:29;10.63;;;6.10;;
21814;SDS011;11069;48.988;8.450;2022-11-15T09:45:50;8.55;;;5.10;;
21814;SDS011;11069;48.988;8.450;2022-11-15T09:51:23;7.85;;;5.40;;
21814;SDS011;11069;48.988;8.450;2022-11-15T09:56:26;6.63;;;5.43;;
21814;SDS011;11069;48.988;8.450;2022-11-15T10:01:33;6.13;;;4.82;;
21814;SDS011;11069;48.988;8.450;2022-11-15T10:04:03;7.18;;;5.47;;
21814;SDS011;11069;48.988;8.450;2022-11-15T10:06:29;7.53;;;5.50;;
21814;SDS011;11069;48.988;8.450;2022-11-15T10:09:00;9.57;;;5.90;;
21814;SDS011;11069;48.988;8.450;2022-11-15T10:11:32;10.18;;;5.18;;
21814;SDS011;11069;48.988;8.450;2022-11-15T10:14:10;7.90;;;5.80;;
21814;SDS011;11069;48.988;8.450;2022-11-15T10:22:21;8.07;;;5.68;;
21814;SDS011;11069;48.988;8.450;2022-11-15T10:25:11;8.00;;;5.80;;
21814;SDS011;11069;48.988;8.450;2022-11-15T10:27:44;7.25;;;5.90;;
21814;SDS011;11069;48.988;8.450;2022-11-15T10:30:17;8.45;;;5.80;;
21814;SDS011;11069;48.988;8.450;2022-11-15T10:32:44;9.23;;;6.10;;
21814;SDS011;11069;48.988;8.450;2022-11-15T10:35:21;9.23;;;6.05;;
21814;SDS011;11069;48.988;8.450;2022-11-15T10:37:56;7.45;;;5.82;;
21814;SDS011;11069;48.988;8.450;2022-11-15T10:40:33;7.57;;;5.60;;
21814;SDS011;11069;48.988;8.450;2022-11-15T10:45:34;9.25;;;6.05;;
21814;SDS011;11069;48.988;8.450;2022-11-15T10:50:42;7.07;;;6.07;;
21814;SDS011;11069;48.988;8.450;2022-11-15T10:53:15;7.20;;;6.47;;
21814;SDS011;11069;48.988;8.450;2022-11-15T10:55:51;10.05;;;6.38;;
21814;SDS011;11069;48.988;8.450;2022-11-15T10:58:32;12.90;;;6.97;;
21814;SDS011;11069;48.988;8.450;2022-11-15T11:01:16;10.18;;;6.55;;
21814;SDS011;11069;48.988;8.450;2022-11-15T11:03:45;8.50;;;7.22;;
21814;SDS011;11069;48.988;8.450;2022-11-15T11:06:24;7.60;;;6.35;;
21814;SDS011;11069;48.988;8.450;2022-11-15T11:08:57;12.65;;;6.65;;
21814;SDS011;11069;48.988;8.450;2022-11-15T11:11:24;15.52;;;7.05;;
21814;SDS011;11069;48.988;8.450;2022-11-15T11:14:11;10.35;;;6.88;;
21814;SDS011;11069;48.988;8.450;2022-11-15T11:16:42;10.57;;;6.57;;
21814;SDS011;11069;48.988;8.450;2022-11-15T11:19:17;7.82;;;6.07;;
21814;SDS011;11069;48.988;8.450;2022-11-15T11:27:53;9.93;;;6.15;;
21814;SDS011;11069;48.988;8.450;2022-11-15T11:30:23;10.18;;;6.75;;
21814;SDS011;11069;48.988;8.450;2022-11-15T11:35:48;16.73;;;7.50;;
21814;SDS011;11069;48.988;8.450;2022-11-15T11:41:26;8.82;;;6.90;;
21814;SDS011;11069;48.988;8.450;2022-11-15T11:44:06;11.50;;;6.88;;
21814;SDS011;11069;48.988;8.450;2022-11-15T11:49:50;8.57;;;7.40;;
21814;SDS011;11069;48.988;8.450;2022-11-15T11:52:20;9.07;;;7.93;;
21814;SDS011;11069;48.988;8.450;2022-11-15T11:57:25;13.77;;;8.68;;
21814;SDS011;11069;48.988;8.450;2022-11-15T12:00:16;11.07;;;7.47;;
21814;SDS011;11069;48.988;8.450;2022-11-15T12:05:49;10.10;;;7.38;;
21814;SDS011;11069;48.988;8.450;2022-11-15T12:11:07;8.63;;;6.35;;
21814;SDS011;11069;48.988;8.450;2022-11-15T12:13:38;11.52;;;9.25;;
21814;SDS011;11069;48.988;8.450;2022-11-15T12:18:46;10.25;;;5.60;;
21814;SDS011;11069;48.988;8.450;2022-11-15T12:21:20;9.05;;;5.20;;
21814;SDS011;11069;48.988;8.450;2022-11-15T12:24:04;5.97;;;4.68;;
21814;SDS011;11069;48.988;8.450;2022-11-15T12:26:58;9.15;;;4.78;;
21814;SDS011;11069;48.988;8.450;2022-11-15T12:31:53;7.10;;;5.72;;
21814;SDS011;11069;48.988;8.450;2022-11-15T12:34:42;7.10;;;4.95;;
21814;SDS011;11069;48.988;8.450;2022-11-15T12:40:20;6.55;;;4.40;;
21814;SDS011;11069;48.988;8.450;2022-11-15T12:45:42;6.97;;;4.95;;
21814;SDS011;11069;48.988;8.450;2022-11-15T13:06:44;8.52;;;4.55;;
21814;SDS011;11069;48.988;8.450;2022-11-15T13:11:55;5.70;;;4.25;;
21814;SDS011;11069;48.988;8.450;2022-11-15T13:17:12;4.65;;;3.88;;
21814;SDS011;11069;48.988;8.450;2022-11-15T13:19:41;6.60;;;4.13;;
21814;SDS011;11069;48.988;8.450;2022-11-15T13:22:11;3.70;;;3.35;;
21814;SDS011;11069;48.988;8.450;2022-11-15T13:24:55;5.72;;;3.70;;
21814;SDS011;11069;48.988;8.450;2022-11-15T13:27:21;5.40;;;3.20;;
21814;SDS011;11069;48.988;8.450;2022-11-15T13:29:47;4.35;;;3.13;;
21814;SDS011;11069;48.988;8.450;2022-11-15T13:32:13;4.97;;;3.42;;
21814;SDS011;11069;48.988;8.450;2022-11-15T13:34:50;4.80;;;3.38;;
21814;SDS011;11069;48.988;8.450;2022-11-15T13:39:46;4.55;;;3.60;;
21814;SDS011;11069;48.988;8.450;2022-11-15T13:42:20;5.60;;;3.90;;
21814;SDS011;11069;48.988;8.450;2022-11-15T13:44:56;6.85;;;3.70;;
21814;SDS011;11069;48.988;8.450;2022-11-15T13:49:56;5.40;;;3.40;;
21814;SDS011;11069;48.988;8.450;2022-11-15T13:52:22;4.22;;;3.35;;
21814;SDS011;11069;48.988;8.450;2022-11-15T14:03:21;6.60;;;4.03;;
21814;SDS011;11069;48.988;8.450;2022-11-15T14:08:36;4.88;;;3.60;;
21814;SDS011;11069;48.988;8.450;2022-11-15T14:11:21;6.03;;;4.00;;
21814;SDS011;11069;48.988;8.450;2022-11-15T14:16:33;6.25;;;4.65;;
21814;SDS011;11069;48.988;8.450;2022-11-15T14:18:59;5.57;;;4.22;;
21814;SDS011;11069;48.988;8.450;2022-11-15T14:21:25;6.97;;;4.20;;
21814;SDS011;11069;48.988;8.450;2022-11-15T14:23:51;5.45;;;4.53;;
21814;SDS011;11069;48.988;8.450;2022-11-15T14:26:32;6.65;;;4.45;;
21814;SDS011;11069;48.988;8.450;2022-11-15T14:31:48;6.53;;;4.60;;
21814;SDS011;11069;48.988;8.450;2022-11-15T14:34:14;6.72;;;5.03;;
21814;SDS011;11069;48.988;8.450;2022-11-15T14:36:40;6.85;;;4.60;;
21814;SDS011;11069;48.988;8.450;2022-11-15T14:39:05;6.97;;;4.03;;
21814;SDS011;11069;48.988;8.450;2022-11-15T14:41:34;5.47;;;4.40;;
21814;SDS011;11069;48.988;8.450;2022-11-15T14:44:03;6.55;;;4.68;;
21814;SDS011;11069;48.988;8.450;2022-11-15T14:46:29;6.80;;;4.70;;
21814;SDS011;11069;48.988;8.450;2022-11-15T14:48:55;11.68;;;5.30;;
21814;SDS011;11069;48.988;8.450;2022-11-15T14:51:21;9.10;;;5.55;;
21814;SDS011;11069;48.988;8.450;2022-11-15T14:53:47;10.32;;;5.40;;
21814;SDS011;11069;48.988;8.450;2022-11-15T14:56:13;10.82;;;5.53;;
21814;SDS011;11069;48.988;8.450;2022-11-15T14:58:39;9.68;;;5.35;;
21814;SDS011;11069;48.988;8.450;2022-11-15T15:01:23;8.65;;;5.30;;
21814;SDS011;11069;48.988;8.450;2022-11-15T15:03:50;7.28;;;4.63;;
21814;SDS011;11069;48.988;8.450;2022-11-15T15:06:17;6.32;;;4.82;;
21814;SDS011;11069;48.988;8.450;2022-11-15T15:08:43;8.05;;;5.28;;
21814;SDS011;11069;48.988;8.450;2022-11-15T15:11:28;10.98;;;5.47;;
21814;SDS011;11069;48.988;8.450;2022-11-15T15:13:55;7.35;;;4.75;;
21814;SDS011;11069;48.988;8.450;2022-11-15T15:16:23;8.05;;;5.00;;
21814;SDS011;11069;48.988;8.450;2022-11-15T15:18:49;7.70;;;5.05;;
21814;SDS011;11069;48.988;8.450;2022-11-15T15:21:20;6.60;;;4.85;;
21814;SDS011;11069;48.988;8.450;2022-11-15T15:23:50;10.40;;;5.22;;
21814;SDS011;11069;48.988;8.450;2022-11-15T15:26:16;6.03;;;5.40;;
21814;SDS011;11069;48.988;8.450;2022-11-15T15:28:42;8.27;;;6.00;;
21814;SDS011;11069;48.988;8.450;2022-11-15T15:31:08;9.88;;;5.72;;
21814;SDS011;11069;48.988;8.450;2022-11-15T15:33:35;13.65;;;6.10;;
21814;SDS011;11069;48.988;8.450;2022-11-15T15:36:00;12.32;;;5.10;;
21814;SDS011;11069;48.988;8.450;2022-11-15T15:38:26;9.35;;;6.65;;
21814;SDS011;11069;48.988;8.450;2022-11-15T15:40:52;6.85;;;5.72;;
21814;SDS011;11069;48.988;8.450;2022-11-15T15:43:17;8.55;;;5.70;;
21814;SDS011;11069;48.988;8.450;2022-11-15T15:45:43;8.18;;;6.65;;
21814;SDS011;11069;48.988;8.450;2022-11-15T15:48:13;8.93;;;6.00;;
21814;SDS011;11069;48.988;8.450;2022-11-15T15:50:40;13.50;;;6.00;;
21814;SDS011;11069;48.988;8.450;2022-11-15T15:53:08;7.05;;;5.00;;
21814;SDS011;11069;48.988;8.450;2022-11-15T15:55:35;8.32;;;5.35;;
21814;SDS011;11069;48.988;8.450;2022-11-15T15:58:01;8.55;;;6.00;;
21814;SDS011;11069;48.988;8.450;2022-11-15T16:00:27;8.95;;;5.45;;
21814;SDS011;11069;48.988;8.450;2022-11-15T16:02:52;9.05;;;5.30;;
21814;SDS011;11069;48.988;8.450;2022-11-15T16:05:19;9.27;;;4.97;;
21814;SDS011;11069;48.988;8.450;2022-11-15T16:07:45;8.77;;;4.55;;
21814;SDS011;11069;48.988;8.450;2022-11-15T16:10:17;9.68;;;4.70;;
21814;SDS011;11069;48.988;8.450;2022-11-15T16:12:57;5.28;;;4.18;;
21814;SDS011;11069;48.988;8.450;2022-11-15T16:15:24;18.75;;;14.70;;
21814;SDS011;11069;48.988;8.450;2022-11-15T16:17:55;5.38;;;3.88;;
21814;SDS011;11069;48.988;8.450;2022-11-15T16:22:53;12.65;;;10.60;;
21814;SDS011;11069;48.988;8.450;2022-11-15T16:25:18;6.10;;;4.53;;
21814;SDS011;11069;48.988;8.450;2022-11-15T16:27:44;5.53;;;3.97;;
21814;SDS011;11069;48.988;8.450;2022-11-15T16:30:14;13.55;;;12.27;;
21814;SDS011;11069;48.988;8.450;2022-11-15T16:32:42;5.82;;;4.80;;
21814;SDS011;11069;48.988;8.450;2022-11-15T16:35:11;5.80;;;4.60;;
21814;SDS011;11069;48.988;8.450;2022-11-15T16:37:38;5.00;;;3.97;;
21814;SDS011;11069;48.988;8.450;2022-11-15T16:40:17;9.57;;;6.85;;
21814;SDS011;11069;48.988;8.450;2022-11-15T16:42:49;6.88;;;4.60;;
21814;SDS011;11069;48.988;8.450;2022-11-15T16:45:15;14.13;;;8.60;;
21814;SDS011;11069;48.988;8.450;2022-11-15T16:47:40;2.80;;;2.60;;
21814;SDS011;11069;48.988;8.450;2022-11-15T16:50:06;6.07;;;4.50;;
21814;SDS011;11069;48.988;8.450;2022-11-15T16:52:48;6.60;;;3.78;;
21814;SDS011;11069;48.988;8.450;2022-11-15T16:55:19;3.50;;;3.20;;
21814;SDS011;11069;48.988;8.450;2022-11-15T16:57:46;4.88;;;3.80;;
21814;SDS011;11069;48.988;8.450;2022-11-15T17:00:12;6.40;;;4.10;;
21814;SDS011;11069;48.988;8.450;2022-11-15T17:02:44;4.75;;;3.95;;
21814;SDS011;11069;48.988;8.450;2022-11-15T17:05:12;4.70;;;4.15;;
21814;SDS011;11069;48.988;8.450;2022-11-15T17:07:39;5.75;;;3.70;;